sensor_id;sensor_type;location;lat;lon;timestamp;P1;durP1;ratioP1;P2;durP2;ratioP2
19727;SDS011;10015;52.530;13.390;2023-06-22T00:00:51;15.25;;;9.90;;
19727;SDS011;10015;52.530;13.390;2023-06-22T00:03:17;13.73;;;10.02;;
19727;SDS011;10015;52.530;13.390;2023-06-22T00:05:44;12.07;;;9.07;;
19727;SDS011;10015;52.530;13.390;2023-06-22T00:08:11;13.80;;;9.65;;
19727;SDS011;10015;52.530;13.390;2023-06-22T00:10:37;13.15;;;9.70;;
19727;SDS011;10015;52.530;13.390;2023-06-22T00:13:03;13.48;;;9.65;;
19727;SDS011;10015;52.530;13.390;2023-06-22T00:15:30;15.10;;;9.82;;
19727;SDS011;10015;52.530;13.390;2023-06-22T00:17:56;11.88;;;9.45;;
19727;SDS011;10015;52.530;13.390;2023-06-22T00:20:22;13.07;;;9.90;;
19727;SDS011;10015;52.530;13.390;2023-06-22T00:22:53;12.43;;;9.70;;
19727;SDS011;10015;52.530;13.390;2023-06-22T00:25:19;11.07;;;9.13;;
19727;SDS011;10015;52.530;13.390;2023-06-22T00:27:45;14.48;;;9.50;;
19727;SDS011;10015;52.530;13.390;2023-06-22T00:30:11;14.52;;;9.73;;
19727;SDS011;10015;52.530;13.390;2023-06-22T00:32:37;10.43;;;8.77;;
19727;SDS011;10015;52.530;13.390;2023-06-22T00:35:05;12.32;;;9.45;;
19727;SDS011;10015;52.530;13.390;2023-06-22T00:37:31;11.60;;;8.88;;
19727;SDS011;10015;52.530;13.390;2023-06-22T00:39:58;11.95;;;9.23;;
19727;SDS011;10015;52.530;13.390;2023-06-22T00:42:24;11.68;;;9.25;;
19727;SDS011;10015;52.530;13.390;2023-06-22T00:44:50;11.68;;;9.13;;
19727;SDS011;10015;52.530;13.390;2023-06-22T00:47:17;12.20;;;9.65;;
19727;SDS011;10015;52.530;13.390;2023-06-22T00:49:44;12.93;;;9.32;;
19727;SDS011;10015;52.530;13.390;2023-06-22T00:52:11;13.60;;;9.10;;
19727;SDS011;10015;52.530;13.390;2023-06-22T00:54:49;12.50;;;8.95;;
19727;SDS011;10015;52.530;13.390;2023-06-22T00:57:16;11.93;;;9.50;;
19727;SDS011;10015;52.530;13.390;2023-06-22T00:59:44;12.70;;;9.75;;
19727;SDS011;10015;52.530;13.390;2023-06-22T01:02:11;11.77;;;9.10;;
19727;SDS011;10015;52.530;13.390;2023-06-22T01:04:37;11.57;;;8.98;;
19727;SDS011;10015;52.530;13.390;2023-06-22T01:07:27;12.75;;;9.60;;
19727;SDS011;10015;52.530;13.390;2023-06-22T01:12:45;12.48;;;9.20;;
19727;SDS011;10015;52.530;13.390;2023-06-22T01:15:19;14.05;;;9.75;;
19727;SDS011;10015;52.530;13.390;2023-06-22T01:17:52;13.40;;;9.95;;
19727;SDS011;10015;52.530;13.390;2023-06-22T01:20:21;16.02;;;10.07;;
19727;SDS011;10015;52.530;13.390;2023-06-22T01:25:43;11.35;;;8.90;;
19727;SDS011;10015;52.530;13.390;2023-06-22T01:30:53;12.95;;;9.50;;
19727;SDS011;10015;52.530;13.390;2023-06-22T01:33:28;11.13;;;8.95;;
19727;SDS011;10015;52.530;13.390;2023-06-22T01:35:56;10.52;;;8.93;;
19727;SDS011;10015;52.530;13.390;2023-06-22T01:38:23;13.07;;;9.52;;
19727;SDS011;10015;52.530;13.390;2023-06-22T01:40:49;12.77;;;9.35;;
19727;SDS011;10015;52.530;13.390;2023-06-22T01:43:16;12.73;;;9.93;;
19727;SDS011;10015;52.530;13.390;2023-06-22T01:45:42;12.52;;;9.18;;
19727;SDS011;10015;52.530;13.390;2023-06-22T01:48:09;11.60;;;8.68;;
19727;SDS011;10015;52.530;13.390;2023-06-22T01:50:35;13.23;;;9.35;;
19727;SDS011;10015;52.530;13.390;2023-06-22T01:53:01;13.02;;;9.63;;
19727;SDS011;10015;52.530;13.390;2023-06-22T01:55:27;13.02;;;9.90;;
19727;SDS011;10015;52.530;13.390;2023-06-22T01:57:52;12.07;;;9.80;;
19727;SDS011;10015;52.530;13.390;2023-06-22T02:00:19;15.18;;;10.32;;
19727;SDS011;10015;52.530;13.390;2023-06-22T02:02:59;11.82;;;9.77;;
19727;SDS011;10015;52.530;13.390;2023-06-22T02:05:52;14.48;;;9.80;;
19727;SDS011;10015;52.530;13.390;2023-06-22T02:08:29;15.07;;;10.88;;
19727;SDS011;10015;52.530;13.390;2023-06-22T02:10:59;14.25;;;10.75;;
19727;SDS011;10015;52.530;13.390;2023-06-22T02:13:28;15.60;;;11.32;;
19727;SDS011;10015;52.530;13.390;2023-06-22T02:15:55;14.50;;;11.20;;
19727;SDS011;10015;52.530;13.390;2023-06-22T02:18:21;15.13;;;10.50;;
19727;SDS011;10015;52.530;13.390;2023-06-22T02:20:47;14.43;;;10.93;;
19727;SDS011;10015;52.530;13.390;2023-06-22T02:23:13;16.02;;;11.38;;
19727;SDS011;10015;52.530;13.390;2023-06-22T02:25:39;13.60;;;10.82;;
19727;SDS011;10015;52.530;13.390;2023-06-22T02:28:05;13.48;;;10.75;;
19727;SDS011;10015;52.530;13.390;2023-06-22T02:30:31;14.30;;;11.35;;
19727;SDS011;10015;52.530;13.390;2023-06-22T02:33:01;17.70;;;12.68;;
19727;SDS011;10015;52.530;13.390;2023-06-22T02:35:27;15.25;;;11.38;;
19727;SDS011;10015;52.530;13.390;2023-06-22T02:38:00;18.23;;;11.88;;
19727;SDS011;10015;52.530;13.390;2023-06-22T02:40:28;16.88;;;11.60;;
19727;SDS011;10015;52.530;13.390;2023-06-22T02:42:55;15.57;;;11.85;;
19727;SDS011;10015;52.530;13.390;2023-06-22T02:45:29;18.48;;;11.68;;
19727;SDS011;10015;52.530;13.390;2023-06-22T02:47:55;18.10;;;12.43;;
19727;SDS011;10015;52.530;13.390;2023-06-22T02:50:21;16.80;;;12.55;;
19727;SDS011;10015;52.530;13.390;2023-06-22T02:52:47;16.52;;;11.35;;
19727;SDS011;10015;52.530;13.390;2023-06-22T02:55:13;14.75;;;11.00;;
19727;SDS011;10015;52.530;13.390;2023-06-22T02:57:41;15.00;;;11.05;;
19727;SDS011;10015;52.530;13.390;2023-06-22T03:00:09;18.02;;;12.00;;
19727;SDS011;10015;52.530;13.390;2023-06-22T03:02:44;15.98;;;12.05;;
19727;SDS011;10015;52.530;13.390;2023-06-22T03:05:11;15.13;;;11.60;;
19727;SDS011;10015;52.530;13.390;2023-06-22T03:07:39;15.73;;;12.00;;
19727;SDS011;10015;52.530;13.390;2023-06-22T03:10:15;16.15;;;12.35;;
19727;SDS011;10015;52.530;13.390;2023-06-22T03:12:42;17.52;;;12.07;;
19727;SDS011;10015;52.530;13.390;2023-06-22T03:15:09;15.93;;;11.55;;
19727;SDS011;10015;52.530;13.390;2023-06-22T03:17:36;14.27;;;11.70;;
19727;SDS011;10015;52.530;13.390;2023-06-22T03:20:07;15.10;;;12.05;;
19727;SDS011;10015;52.530;13.390;2023-06-22T03:22:36;15.90;;;12.20;;
19727;SDS011;10015;52.530;13.390;2023-06-22T03:25:02;17.92;;;12.45;;
19727;SDS011;10015;52.530;13.390;2023-06-22T03:27:29;16.58;;;11.18;;
19727;SDS011;10015;52.530;13.390;2023-06-22T03:29:56;16.05;;;11.70;;
19727;SDS011;10015;52.530;13.390;2023-06-22T03:32:23;16.70;;;11.55;;
19727;SDS011;10015;52.530;13.390;2023-06-22T03:34:49;14.02;;;10.82;;
19727;SDS011;10015;52.530;13.390;2023-06-22T03:37:15;13.70;;;10.77;;
19727;SDS011;10015;52.530;13.390;2023-06-22T03:39:41;19.45;;;10.77;;
19727;SDS011;10015;52.530;13.390;2023-06-22T03:42:08;12.88;;;10.48;;
19727;SDS011;10015;52.530;13.390;2023-06-22T03:44:34;13.77;;;11.10;;
19727;SDS011;10015;52.530;13.390;2023-06-22T03:47:02;13.30;;;9.85;;
19727;SDS011;10015;52.530;13.390;2023-06-22T03:49:29;14.13;;;10.10;;
19727;SDS011;10015;52.530;13.390;2023-06-22T03:51:55;12.65;;;9.57;;
19727;SDS011;10015;52.530;13.390;2023-06-22T03:54:21;12.98;;;9.07;;
19727;SDS011;10015;52.530;13.390;2023-06-22T03:56:47;12.73;;;9.13;;
19727;SDS011;10015;52.530;13.390;2023-06-22T03:59:12;15.82;;;9.25;;
19727;SDS011;10015;52.530;13.390;2023-06-22T04:01:38;12.98;;;9.13;;
19727;SDS011;10015;52.530;13.390;2023-06-22T04:04:05;11.40;;;8.02;;
19727;SDS011;10015;52.530;13.390;2023-06-22T04:06:31;13.27;;;8.23;;
19727;SDS011;10015;52.530;13.390;2023-06-22T04:08:57;11.93;;;8.52;;
19727;SDS011;10015;52.530;13.390;2023-06-22T04:11:22;10.68;;;7.97;;
19727;SDS011;10015;52.530;13.390;2023-06-22T04:13:48;9.38;;;7.78;;
19727;SDS011;10015;52.530;13.390;2023-06-22T04:16:16;15.70;;;8.23;;
19727;SDS011;10015;52.530;13.390;2023-06-22T04:18:42;12.25;;;8.38;;
19727;SDS011;10015;52.530;13.390;2023-06-22T04:21:08;9.63;;;7.63;;
19727;SDS011;10015;52.530;13.390;2023-06-22T04:23:35;10.40;;;7.75;;
19727;SDS011;10015;52.530;13.390;2023-06-22T04:26:00;9.55;;;7.35;;
19727;SDS011;10015;52.530;13.390;2023-06-22T04:28:26;11.02;;;7.82;;
19727;SDS011;10015;52.530;13.390;2023-06-22T04:30:52;11.15;;;6.85;;
19727;SDS011;10015;52.530;13.390;2023-06-22T04:33:22;11.30;;;7.28;;
19727;SDS011;10015;52.530;13.390;2023-06-22T04:35:48;8.82;;;6.97;;
19727;SDS011;10015;52.530;13.390;2023-06-22T04:38:14;8.65;;;6.63;;
19727;SDS011;10015;52.530;13.390;2023-06-22T04:40:40;11.27;;;7.15;;
19727;SDS011;10015;52.530;13.390;2023-06-22T04:43:06;10.38;;;6.72;;
19727;SDS011;10015;52.530;13.390;2023-06-22T04:45:32;8.30;;;6.22;;
19727;SDS011;10015;52.530;13.390;2023-06-22T04:47:59;8.73;;;6.10;;
19727;SDS011;10015;52.530;13.390;2023-06-22T04:50:25;9.60;;;6.57;;
19727;SDS011;10015;52.530;13.390;2023-06-22T04:52:51;7.88;;;5.20;;
19727;SDS011;10015;52.530;13.390;2023-06-22T04:55:17;8.88;;;5.00;;
19727;SDS011;10015;52.530;13.390;2023-06-22T04:57:45;7.03;;;4.47;;
19727;SDS011;10015;52.530;13.390;2023-06-22T05:00:18;11.52;;;4.70;;
19727;SDS011;10015;52.530;13.390;2023-06-22T05:02:45;9.05;;;4.13;;
19727;SDS011;10015;52.530;13.390;2023-06-22T05:05:12;6.90;;;4.15;;
19727;SDS011;10015;52.530;13.390;2023-06-22T05:07:42;6.25;;;3.92;;
19727;SDS011;10015;52.530;13.390;2023-06-22T05:10:10;6.32;;;4.03;;
19727;SDS011;10015;52.530;13.390;2023-06-22T05:12:37;4.57;;;3.70;;
19727;SDS011;10015;52.530;13.390;2023-06-22T05:15:04;6.85;;;3.58;;
19727;SDS011;10015;52.530;13.390;2023-06-22T05:17:31;5.78;;;3.75;;
19727;SDS011;10015;52.530;13.390;2023-06-22T05:19:57;5.65;;;4.03;;
19727;SDS011;10015;52.530;13.390;2023-06-22T05:22:23;6.60;;;3.78;;
19727;SDS011;10015;52.530;13.390;2023-06-22T05:24:49;10.05;;;4.07;;
19727;SDS011;10015;52.530;13.390;2023-06-22T05:27:15;7.20;;;4.30;;
19727;SDS011;10015;52.530;13.390;2023-06-22T05:29:41;7.00;;;4.00;;
19727;SDS011;10015;52.530;13.390;2023-06-22T05:32:10;5.63;;;3.65;;
19727;SDS011;10015;52.530;13.390;2023-06-22T05:34:36;6.40;;;3.70;;
19727;SDS011;10015;52.530;13.390;2023-06-22T05:37:02;5.05;;;3.88;;
19727;SDS011;10015;52.530;13.390;2023-06-22T05:39:28;7.38;;;4.18;;
19727;SDS011;10015;52.530;13.390;2023-06-22T05:41:54;9.02;;;3.92;;
19727;SDS011;10015;52.530;13.390;2023-06-22T05:44:20;5.78;;;3.88;;
19727;SDS011;10015;52.530;13.390;2023-06-22T05:46:46;7.97;;;4.13;;
19727;SDS011;10015;52.530;13.390;2023-06-22T05:49:13;5.45;;;3.67;;
19727;SDS011;10015;52.530;13.390;2023-06-22T05:51:40;9.80;;;4.68;;
19727;SDS011;10015;52.530;13.390;2023-06-22T05:54:06;7.78;;;4.50;;
19727;SDS011;10015;52.530;13.390;2023-06-22T05:56:34;8.93;;;4.60;;
19727;SDS011;10015;52.530;13.390;2023-06-22T05:59:00;8.80;;;4.75;;
19727;SDS011;10015;52.530;13.390;2023-06-22T06:01:25;8.13;;;4.68;;
19727;SDS011;10015;52.530;13.390;2023-06-22T06:03:52;6.18;;;4.05;;
19727;SDS011;10015;52.530;13.390;2023-06-22T06:06:18;8.75;;;4.50;;
19727;SDS011;10015;52.530;13.390;2023-06-22T06:08:46;7.47;;;4.35;;
19727;SDS011;10015;52.530;13.390;2023-06-22T06:11:12;10.88;;;5.20;;
19727;SDS011;10015;52.530;13.390;2023-06-22T06:13:38;8.63;;;4.60;;
19727;SDS011;10015;52.530;13.390;2023-06-22T06:16:04;6.80;;;4.22;;
19727;SDS011;10015;52.530;13.390;2023-06-22T06:18:30;6.55;;;4.70;;
19727;SDS011;10015;52.530;13.390;2023-06-22T06:20:56;12.20;;;5.07;;
19727;SDS011;10015;52.530;13.390;2023-06-22T06:23:22;8.88;;;5.40;;
19727;SDS011;10015;52.530;13.390;2023-06-22T06:25:48;7.53;;;4.70;;
19727;SDS011;10015;52.530;13.390;2023-06-22T06:28:14;6.15;;;4.85;;
19727;SDS011;10015;52.530;13.390;2023-06-22T06:30:40;7.78;;;4.57;;
19727;SDS011;10015;52.530;13.390;2023-06-22T06:33:06;7.47;;;4.50;;
19727;SDS011;10015;52.530;13.390;2023-06-22T06:35:34;4.53;;;3.97;;
19727;SDS011;10015;52.530;13.390;2023-06-22T06:38:00;5.97;;;4.20;;
19727;SDS011;10015;52.530;13.390;2023-06-22T06:40:26;5.53;;;3.90;;
19727;SDS011;10015;52.530;13.390;2023-06-22T06:42:52;5.88;;;3.75;;
19727;SDS011;10015;52.530;13.390;2023-06-22T06:45:18;6.82;;;3.50;;
19727;SDS011;10015;52.530;13.390;2023-06-22T06:47:48;5.60;;;3.63;;
19727;SDS011;10015;52.530;13.390;2023-06-22T06:50:15;5.88;;;3.72;;
19727;SDS011;10015;52.530;13.390;2023-06-22T06:52:42;7.00;;;3.58;;
19727;SDS011;10015;52.530;13.390;2023-06-22T06:55:08;5.65;;;3.70;;
19727;SDS011;10015;52.530;13.390;2023-06-22T06:57:39;6.57;;;3.38;;
19727;SDS011;10015;52.530;13.390;2023-06-22T07:00:06;5.93;;;3.90;;
19727;SDS011;10015;52.530;13.390;2023-06-22T07:02:37;5.22;;;3.45;;
19727;SDS011;10015;52.530;13.390;2023-06-22T07:05:05;8.70;;;3.55;;
19727;SDS011;10015;52.530;13.390;2023-06-22T07:07:32;5.13;;;3.00;;
19727;SDS011;10015;52.530;13.390;2023-06-22T07:09:58;3.97;;;2.85;;
19727;SDS011;10015;52.530;13.390;2023-06-22T07:12:24;5.18;;;2.95;;
19727;SDS011;10015;52.530;13.390;2023-06-22T07:14:51;6.20;;;3.50;;
19727;SDS011;10015;52.530;13.390;2023-06-22T07:17:18;4.45;;;3.17;;
19727;SDS011;10015;52.530;13.390;2023-06-22T07:19:44;6.95;;;2.85;;
19727;SDS011;10015;52.530;13.390;2023-06-22T07:22:10;4.05;;;2.60;;
19727;SDS011;10015;52.530;13.390;2023-06-22T07:24:36;7.05;;;2.92;;
19727;SDS011;10015;52.530;13.390;2023-06-22T07:27:02;7.00;;;2.90;;
19727;SDS011;10015;52.530;13.390;2023-06-22T07:29:30;6.28;;;2.95;;
19727;SDS011;10015;52.530;13.390;2023-06-22T07:31:57;3.70;;;2.70;;
19727;SDS011;10015;52.530;13.390;2023-06-22T07:34:23;4.57;;;2.92;;
19727;SDS011;10015;52.530;13.390;2023-06-22T07:36:49;4.57;;;2.90;;
19727;SDS011;10015;52.530;13.390;2023-06-22T07:39:15;6.97;;;2.90;;
19727;SDS011;10015;52.530;13.390;2023-06-22T07:41:41;4.38;;;2.70;;
19727;SDS011;10015;52.530;13.390;2023-06-22T07:44:07;4.50;;;2.45;;
19727;SDS011;10015;52.530;13.390;2023-06-22T07:46:33;4.70;;;2.55;;
19727;SDS011;10015;52.530;13.390;2023-06-22T07:48:59;3.53;;;2.38;;
19727;SDS011;10015;52.530;13.390;2023-06-22T07:51:26;3.58;;;2.47;;
19727;SDS011;10015;52.530;13.390;2023-06-22T07:53:52;2.75;;;2.38;;
19727;SDS011;10015;52.530;13.390;2023-06-22T07:56:19;3.67;;;2.00;;
19727;SDS011;10015;52.530;13.390;2023-06-22T07:58:45;3.38;;;2.38;;
19727;SDS011;10015;52.530;13.390;2023-06-22T08:01:12;2.88;;;2.25;;
19727;SDS011;10015;52.530;13.390;2023-06-22T08:03:45;3.75;;;2.28;;
19727;SDS011;10015;52.530;13.390;2023-06-22T08:06:11;3.92;;;2.40;;
19727;SDS011;10015;52.530;13.390;2023-06-22T08:08:37;6.68;;;2.60;;
19727;SDS011;10015;52.530;13.390;2023-06-22T08:11:03;4.88;;;2.67;;
19727;SDS011;10015;52.530;13.390;2023-06-22T08:13:29;5.72;;;2.90;;
19727;SDS011;10015;52.530;13.390;2023-06-22T08:15:55;4.65;;;2.92;;
19727;SDS011;10015;52.530;13.390;2023-06-22T08:18:21;4.50;;;2.58;;
19727;SDS011;10015;52.530;13.390;2023-06-22T08:20:47;2.60;;;2.40;;
19727;SDS011;10015;52.530;13.390;2023-06-22T08:23:13;3.85;;;2.70;;
19727;SDS011;10015;52.530;13.390;2023-06-22T08:25:39;6.72;;;3.17;;
19727;SDS011;10015;52.530;13.390;2023-06-22T08:28:05;9.35;;;3.05;;
19727;SDS011;10015;52.530;13.390;2023-06-22T08:30:31;8.73;;;2.70;;
19727;SDS011;10015;52.530;13.390;2023-06-22T08:32:56;5.32;;;2.58;;
19727;SDS011;10015;52.530;13.390;2023-06-22T08:35:23;3.53;;;2.40;;
19727;SDS011;10015;52.530;13.390;2023-06-22T08:37:49;3.58;;;2.67;;
19727;SDS011;10015;52.530;13.390;2023-06-22T08:40:18;4.32;;;2.70;;
19727;SDS011;10015;52.530;13.390;2023-06-22T08:42:45;6.00;;;2.70;;
19727;SDS011;10015;52.530;13.390;2023-06-22T08:45:12;4.10;;;2.47;;
19727;SDS011;10015;52.530;13.390;2023-06-22T08:47:39;6.05;;;2.60;;
19727;SDS011;10015;52.530;13.390;2023-06-22T08:50:06;4.45;;;2.38;;
19727;SDS011;10015;52.530;13.390;2023-06-22T08:52:36;7.68;;;3.15;;
19727;SDS011;10015;52.530;13.390;2023-06-22T08:55:03;3.50;;;2.83;;
19727;SDS011;10015;52.530;13.390;2023-06-22T08:57:31;5.45;;;3.20;;
19727;SDS011;10015;52.530;13.390;2023-06-22T08:59:58;4.85;;;2.70;;
19727;SDS011;10015;52.530;13.390;2023-06-22T09:02:24;3.50;;;2.60;;
19727;SDS011;10015;52.530;13.390;2023-06-22T09:04:51;5.75;;;2.88;;
19727;SDS011;10015;52.530;13.390;2023-06-22T09:07:24;3.60;;;2.78;;
19727;SDS011;10015;52.530;13.390;2023-06-22T09:09:51;4.75;;;3.10;;
19727;SDS011;10015;52.530;13.390;2023-06-22T09:12:20;4.38;;;2.80;;
19727;SDS011;10015;52.530;13.390;2023-06-22T09:14:49;3.35;;;2.70;;
19727;SDS011;10015;52.530;13.390;2023-06-22T09:17:15;6.03;;;2.90;;
19727;SDS011;10015;52.530;13.390;2023-06-22T09:19:41;5.07;;;3.00;;
19727;SDS011;10015;52.530;13.390;2023-06-22T09:22:07;5.70;;;3.28;;
19727;SDS011;10015;52.530;13.390;2023-06-22T09:24:33;8.30;;;3.22;;
19727;SDS011;10015;52.530;13.390;2023-06-22T09:26:59;7.35;;;3.20;;
19727;SDS011;10015;52.530;13.390;2023-06-22T09:29:26;5.93;;;3.00;;
19727;SDS011;10015;52.530;13.390;2023-06-22T09:31:52;6.60;;;2.85;;
19727;SDS011;10015;52.530;13.390;2023-06-22T09:34:19;8.93;;;3.47;;
19727;SDS011;10015;52.530;13.390;2023-06-22T09:36:48;4.13;;;2.90;;
19727;SDS011;10015;52.530;13.390;2023-06-22T09:39:14;7.25;;;3.17;;
19727;SDS011;10015;52.530;13.390;2023-06-22T09:41:40;3.40;;;2.75;;
19727;SDS011;10015;52.530;13.390;2023-06-22T09:44:06;3.13;;;2.40;;
19727;SDS011;10015;52.530;13.390;2023-06-22T09:46:32;3.80;;;2.50;;
19727;SDS011;10015;52.530;13.390;2023-06-22T09:48:58;3.70;;;2.70;;
19727;SDS011;10015;52.530;13.390;2023-06-22T09:51:30;4.30;;;3.28;;
19727;SDS011;10015;52.530;13.390;2023-06-22T09:53:56;4.63;;;3.38;;
19727;SDS011;10015;52.530;13.390;2023-06-22T09:56:23;3.83;;;2.97;;
19727;SDS011;10015;52.530;13.390;2023-06-22T09:58:49;3.90;;;3.08;;
19727;SDS011;10015;52.530;13.390;2023-06-22T10:01:18;4.43;;;2.85;;
19727;SDS011;10015;52.530;13.390;2023-06-22T10:03:44;8.93;;;4.82;;
19727;SDS011;10015;52.530;13.390;2023-06-22T10:06:10;5.78;;;3.50;;
19727;SDS011;10015;52.530;13.390;2023-06-22T10:08:36;4.13;;;3.25;;
19727;SDS011;10015;52.530;13.390;2023-06-22T10:11:02;4.10;;;3.00;;
19727;SDS011;10015;52.530;13.390;2023-06-22T10:13:29;6.07;;;3.20;;
19727;SDS011;10015;52.530;13.390;2023-06-22T10:15:55;6.95;;;3.20;;
19727;SDS011;10015;52.530;13.390;2023-06-22T10:18:21;5.47;;;3.40;;
19727;SDS011;10015;52.530;13.390;2023-06-22T10:20:48;9.85;;;3.10;;
19727;SDS011;10015;52.530;13.390;2023-06-22T10:23:16;4.57;;;3.20;;
19727;SDS011;10015;52.530;13.390;2023-06-22T10:25:43;4.88;;;3.40;;
19727;SDS011;10015;52.530;13.390;2023-06-22T10:28:09;4.97;;;3.60;;
19727;SDS011;10015;52.530;13.390;2023-06-22T10:30:35;4.38;;;3.40;;
19727;SDS011;10015;52.530;13.390;2023-06-22T10:33:00;5.25;;;3.53;;
19727;SDS011;10015;52.530;13.390;2023-06-22T10:35:26;6.78;;;3.70;;
19727;SDS011;10015;52.530;13.390;2023-06-22T10:37:53;5.30;;;3.35;;
19727;SDS011;10015;52.530;13.390;2023-06-22T10:40:20;5.60;;;3.38;;
19727;SDS011;10015;52.530;13.390;2023-06-22T10:42:46;5.80;;;3.50;;
19727;SDS011;10015;52.530;13.390;2023-06-22T10:45:12;6.53;;;3.53;;
19727;SDS011;10015;52.530;13.390;2023-06-22T10:47:38;5.07;;;3.72;;
19727;SDS011;10015;52.530;13.390;2023-06-22T10:50:07;4.90;;;3.40;;
19727;SDS011;10015;52.530;13.390;2023-06-22T10:52:33;5.35;;;3.80;;
19727;SDS011;10015;52.530;13.390;2023-06-22T10:54:59;6.38;;;3.72;;
19727;SDS011;10015;52.530;13.390;2023-06-22T10:57:25;4.78;;;3.30;;
19727;SDS011;10015;52.530;13.390;2023-06-22T10:59:51;5.65;;;3.25;;
19727;SDS011;10015;52.530;13.390;2023-06-22T11:02:17;4.82;;;3.72;;
19727;SDS011;10015;52.530;13.390;2023-06-22T11:04:43;5.15;;;3.30;;
19727;SDS011;10015;52.530;13.390;2023-06-22T11:07:09;6.72;;;4.07;;
19727;SDS011;10015;52.530;13.390;2023-06-22T11:09:36;5.32;;;3.58;;
19727;SDS011;10015;52.530;13.390;2023-06-22T11:12:06;7.65;;;3.10;;
19727;SDS011;10015;52.530;13.390;2023-06-22T11:14:32;6.68;;;3.50;;
19727;SDS011;10015;52.530;13.390;2023-06-22T11:17:01;5.00;;;3.38;;
19727;SDS011;10015;52.530;13.390;2023-06-22T11:19:27;4.57;;;3.53;;
19727;SDS011;10015;52.530;13.390;2023-06-22T11:21:53;5.72;;;3.63;;
19727;SDS011;10015;52.530;13.390;2023-06-22T11:24:19;6.00;;;3.45;;
19727;SDS011;10015;52.530;13.390;2023-06-22T11:26:45;5.45;;;3.90;;
19727;SDS011;10015;52.530;13.390;2023-06-22T11:29:10;6.00;;;3.35;;
19727;SDS011;10015;52.530;13.390;2023-06-22T11:31:36;4.70;;;3.70;;
19727;SDS011;10015;52.530;13.390;2023-06-22T11:34:03;3.72;;;3.35;;
19727;SDS011;10015;52.530;13.390;2023-06-22T11:36:32;6.35;;;3.72;;
19727;SDS011;10015;52.530;13.390;2023-06-22T11:38:58;5.05;;;3.88;;
19727;SDS011;10015;52.530;13.390;2023-06-22T11:41:24;5.72;;;3.47;;
19727;SDS011;10015;52.530;13.390;2023-06-22T11:43:50;5.75;;;3.85;;
19727;SDS011;10015;52.530;13.390;2023-06-22T11:46:16;4.28;;;3.45;;
19727;SDS011;10015;52.530;13.390;2023-06-22T11:48:42;4.05;;;3.38;;
19727;SDS011;10015;52.530;13.390;2023-06-22T11:51:08;6.03;;;3.60;;
19727;SDS011;10015;52.530;13.390;2023-06-22T11:53:34;8.57;;;3.67;;
19727;SDS011;10015;52.530;13.390;2023-06-22T11:56:01;6.95;;;4.30;;
19727;SDS011;10015;52.530;13.390;2023-06-22T11:58:27;7.95;;;3.67;;
19727;SDS011;10015;52.530;13.390;2023-06-22T12:00:53;8.05;;;3.80;;
19727;SDS011;10015;52.530;13.390;2023-06-22T12:03:19;5.97;;;3.83;;
19727;SDS011;10015;52.530;13.390;2023-06-22T12:05:49;4.10;;;3.20;;
19727;SDS011;10015;52.530;13.390;2023-06-22T12:08:19;5.82;;;3.65;;
19727;SDS011;10015;52.530;13.390;2023-06-22T12:10:45;6.43;;;3.70;;
19727;SDS011;10015;52.530;13.390;2023-06-22T12:13:11;4.63;;;3.65;;
19727;SDS011;10015;52.530;13.390;2023-06-22T12:15:37;6.90;;;4.03;;
19727;SDS011;10015;52.530;13.390;2023-06-22T12:18:03;9.40;;;4.72;;
19727;SDS011;10015;52.530;13.390;2023-06-22T12:20:29;6.00;;;3.80;;
19727;SDS011;10015;52.530;13.390;2023-06-22T12:22:58;5.75;;;3.90;;
19727;SDS011;10015;52.530;13.390;2023-06-22T12:25:24;5.43;;;3.55;;
19727;SDS011;10015;52.530;13.390;2023-06-22T12:27:50;5.25;;;3.53;;
19727;SDS011;10015;52.530;13.390;2023-06-22T12:30:16;5.32;;;3.55;;
19727;SDS011;10015;52.530;13.390;2023-06-22T12:32:42;5.45;;;3.55;;
19727;SDS011;10015;52.530;13.390;2023-06-22T12:35:08;5.95;;;3.88;;
19727;SDS011;10015;52.530;13.390;2023-06-22T12:37:42;4.88;;;3.47;;
19727;SDS011;10015;52.530;13.390;2023-06-22T12:40:08;6.13;;;3.85;;
19727;SDS011;10015;52.530;13.390;2023-06-22T12:42:35;7.35;;;4.20;;
19727;SDS011;10015;52.530;13.390;2023-06-22T12:45:01;4.82;;;3.90;;
19727;SDS011;10015;52.530;13.390;2023-06-22T12:47:27;5.72;;;4.03;;
19727;SDS011;10015;52.530;13.390;2023-06-22T12:49:53;5.07;;;4.07;;
19727;SDS011;10015;52.530;13.390;2023-06-22T12:52:22;5.05;;;3.83;;
19727;SDS011;10015;52.530;13.390;2023-06-22T12:54:48;5.97;;;3.55;;
19727;SDS011;10015;52.530;13.390;2023-06-22T12:57:14;9.18;;;4.20;;
19727;SDS011;10015;52.530;13.390;2023-06-22T12:59:40;6.03;;;4.93;;
19727;SDS011;10015;52.530;13.390;2023-06-22T13:02:06;5.72;;;3.55;;
19727;SDS011;10015;52.530;13.390;2023-06-22T13:04:32;6.90;;;3.58;;
19727;SDS011;10015;52.530;13.390;2023-06-22T13:06:58;6.47;;;4.25;;
19727;SDS011;10015;52.530;13.390;2023-06-22T13:09:24;6.93;;;3.88;;
19727;SDS011;10015;52.530;13.390;2023-06-22T13:11:50;5.35;;;3.63;;
19727;SDS011;10015;52.530;13.390;2023-06-22T13:14:18;4.47;;;3.45;;
19727;SDS011;10015;52.530;13.390;2023-06-22T13:16:44;6.32;;;4.05;;
19727;SDS011;10015;52.530;13.390;2023-06-22T13:19:10;5.35;;;4.15;;
19727;SDS011;10015;52.530;13.390;2023-06-22T13:21:36;6.47;;;3.80;;
19727;SDS011;10015;52.530;13.390;2023-06-22T13:24:02;6.13;;;4.28;;
19727;SDS011;10015;52.530;13.390;2023-06-22T13:26:31;7.45;;;4.40;;
19727;SDS011;10015;52.530;13.390;2023-06-22T13:28:57;4.63;;;3.83;;
19727;SDS011;10015;52.530;13.390;2023-06-22T13:31:23;5.18;;;3.53;;
19727;SDS011;10015;52.530;13.390;2023-06-22T13:33:49;4.63;;;3.55;;
19727;SDS011;10015;52.530;13.390;2023-06-22T13:36:17;7.63;;;3.97;;
19727;SDS011;10015;52.530;13.390;2023-06-22T13:38:44;7.38;;;3.67;;
19727;SDS011;10015;52.530;13.390;2023-06-22T13:41:10;4.47;;;4.00;;
19727;SDS011;10015;52.530;13.390;2023-06-22T13:43:36;4.30;;;3.83;;
19727;SDS011;10015;52.530;13.390;2023-06-22T13:46:02;6.32;;;4.30;;
19727;SDS011;10015;52.530;13.390;2023-06-22T13:48:28;4.85;;;3.55;;
19727;SDS011;10015;52.530;13.390;2023-06-22T13:50:54;6.30;;;4.13;;
19727;SDS011;10015;52.530;13.390;2023-06-22T13:53:20;4.80;;;3.53;;
19727;SDS011;10015;52.530;13.390;2023-06-22T13:55:46;10.52;;;4.05;;
19727;SDS011;10015;52.530;13.390;2023-06-22T13:58:13;6.47;;;3.70;;
19727;SDS011;10015;52.530;13.390;2023-06-22T14:00:39;4.60;;;3.85;;
19727;SDS011;10015;52.530;13.390;2023-06-22T14:03:05;4.95;;;4.22;;
19727;SDS011;10015;52.530;13.390;2023-06-22T14:05:31;6.80;;;4.18;;
19727;SDS011;10015;52.530;13.390;2023-06-22T14:07:57;7.82;;;4.57;;
19727;SDS011;10015;52.530;13.390;2023-06-22T14:10:23;6.22;;;4.10;;
19727;SDS011;10015;52.530;13.390;2023-06-22T14:12:49;5.95;;;3.90;;
19727;SDS011;10015;52.530;13.390;2023-06-22T14:15:15;6.40;;;4.45;;
19727;SDS011;10015;52.530;13.390;2023-06-22T14:17:40;7.97;;;4.15;;
19727;SDS011;10015;52.530;13.390;2023-06-22T14:20:06;7.75;;;4.40;;
19727;SDS011;10015;52.530;13.390;2023-06-22T14:22:33;5.22;;;4.13;;
19727;SDS011;10015;52.530;13.390;2023-06-22T14:25:01;4.97;;;3.78;;
19727;SDS011;10015;52.530;13.390;2023-06-22T14:27:27;5.13;;;4.00;;
19727;SDS011;10015;52.530;13.390;2023-06-22T14:29:56;5.63;;;4.03;;
19727;SDS011;10015;52.530;13.390;2023-06-22T14:32:22;6.07;;;3.90;;
19727;SDS011;10015;52.530;13.390;2023-06-22T14:34:49;6.60;;;4.55;;